Time,TemperatureF,DewpointF,PressureIn,WindDirection,WindDirectionDegrees,WindSpeedMPH,WindSpeedGustMPH,Humidity,HourlyPrecipIn,Conditions,Clouds,dailyrainin,SoftwareType,DateUTC
2013-02-18 00:01:00,21.8,8.5,29.54,WNW,300,13.0,37.0,56,0.00,,---,0.00,VWS V14.01,2013-02-18 05:01:00,
2013-02-18 00:16:00,21.5,7.4,29.55,WNW,284,23.0,35.0,54,0.00,,---,0.00,VWS V14.01,2013-02-18 05:16:00,
2013-02-18 00:31:00,21.4,7.3,29.56,NW,316,21.0,35.0,54,0.00,,---,0.00,VWS V14.01,2013-02-18 05:31:00,
2013-02-18 00:46:00,21.0,8.2,29.57,West,281,18.0,30.0,57,0.00,,---,0.00,VWS V14.01,2013-02-18 05:46:00,
2013-02-18 01:01:00,20.8,8.4,29.57,WNW,286,15.0,31.0,58,0.00,,---,0.00,VWS V14.01,2013-02-18 06:01:00,
2013-02-18 01:16:00,20.2,8.2,29.58,WNW,284,18.0,30.0,59,0.00,,---,0.00,VWS V14.01,2013-02-18 06:16:00,
2013-02-18 01:31:00,19.8,7.4,29.58,WNW,287,15.0,29.0,58,0.00,,---,0.00,VWS V14.01,2013-02-18 06:31:00,
2013-02-18 01:46:00,19.5,7.5,29.58,WNW,287,21.0,30.0,59,0.00,,---,0.00,VWS V14.01,2013-02-18 06:46:00,
2013-02-18 02:01:00,19.5,7.5,29.59,NW,315,17.0,33.0,59,0.00,,---,0.00,VWS V14.01,2013-02-18 07:01:00,
2013-02-18 02:16:00,19.4,7.8,29.60,WNW,286,13.0,35.0,60,0.00,,---,0.00,VWS V14.01,2013-02-18 07:16:00,
2013-02-18 02:31:00,19.3,7.3,29.61,WNW,296,18.0,35.0,59,0.00,,---,0.00,VWS V14.01,2013-02-18 07:31:00,
2013-02-18 02:46:00,19.1,7.1,29.61,West,279,9.0,30.0,59,0.00,,---,0.00,VWS V14.01,2013-02-18 07:46:00,
2013-02-18 03:01:00,19.0,7.4,29.62,WNW,298,23.0,30.0,60,0.00,,---,0.00,VWS V14.01,2013-02-18 08:01:00,
2013-02-18 03:16:00,18.9,7.3,29.63,WNW,296,9.0,29.0,60,0.00,,---,0.00,VWS V14.01,2013-02-18 08:16:00,
2013-02-18 03:31:00,18.8,7.6,29.64,West,273,23.0,31.0,61,0.00,,---,0.00,VWS V14.01,2013-02-18 08:31:00,
2013-02-18 03:46:00,18.9,7.7,29.65,NW,306,14.0,35.0,61,0.00,,---,0.00,VWS V14.01,2013-02-18 08:46:00,
2013-02-18 04:01:00,18.9,8.1,29.65,WSW,255,14.0,30.0,62,0.00,,---,0.00,VWS V14.01,2013-02-18 09:01:00,
2013-02-18 04:16:00,18.9,8.1,29.66,NW,304,15.0,30.0,62,0.00,,---,0.00,VWS V14.01,2013-02-18 09:16:00,
2013-02-18 04:31:00,18.9,8.1,29.67,NW,313,14.0,28.0,62,0.00,,---,0.00,VWS V14.01,2013-02-18 09:31:00,
2013-02-18 04:46:00,18.8,7.9,29.68,NW,306,13.0,28.0,62,0.00,,---,0.00,VWS V14.01,2013-02-18 09:46:00,
2013-02-18 05:01:00,18.9,8.4,29.68,NW,323,21.0,32.0,63,0.00,,---,0.00,VWS V14.01,2013-02-18 10:01:00,
2013-02-18 05:16:00,18.8,8.3,29.69,WNW,285,15.0,32.0,63,0.00,,---,0.00,VWS V14.01,2013-02-18 10:16:00,
2013-02-18 05:31:00,18.9,8.8,29.69,WNW,292,18.0,31.0,64,0.00,,---,0.00,VWS V14.01,2013-02-18 10:31:00,
2013-02-18 05:46:00,18.9,8.1,29.71,NW,308,22.0,31.0,62,0.00,,---,0.00,VWS V14.01,2013-02-18 10:46:00,
2013-02-18 06:01:00,18.8,8.3,29.70,WNW,291,16.0,33.0,63,0.00,,---,0.00,VWS V14.01,2013-02-18 11:01:00,
2013-02-18 06:16:00,18.8,8.3,29.70,WNW,295,16.0,36.0,63,0.00,,---,0.00,VWS V14.01,2013-02-18 11:16:00,
2013-02-18 06:31:00,18.9,8.8,29.71,West,275,23.0,32.0,64,0.00,,---,0.00,VWS V14.01,2013-02-18 11:31:00,
2013-02-18 06:46:00,18.9,8.4,29.73,West,278,22.0,38.0,63,0.00,,---,0.00,VWS V14.01,2013-02-18 11:46:00,
2013-02-18 07:01:00,18.9,8.8,29.74,NW,306,12.0,35.0,64,0.00,,---,0.00,VWS V14.01,2013-02-18 12:01:00,
2013-02-18 07:16:00,18.9,8.4,29.75,West,278,11.0,31.0,63,0.00,,---,0.00,VWS V14.01,2013-02-18 12:16:00,
2013-02-18 07:31:00,19.4,8.9,29.76,WNW,295,11.0,34.0,63,0.00,,---,0.00,VWS V14.01,2013-02-18 12:31:00,
2013-02-18 07:46:00,19.6,9.1,29.77,NW,314,23.0,33.0,63,0.00,,---,0.00,VWS V14.01,2013-02-18 12:46:00,
2013-02-18 08:01:00,19.9,9.0,29.78,NW,313,24.0,36.0,62,0.00,,---,0.00,VWS V14.01,2013-02-18 13:01:00,
2013-02-18 08:16:00,20.4,9.5,29.80,West,275,19.0,35.0,62,0.00,,---,0.00,VWS V14.01,2013-02-18 13:16:00,
2013-02-18 08:31:00,20.8,9.5,29.80,WNW,298,20.0,35.0,61,0.00,,---,0.00,VWS V14.01,2013-02-18 13:31:00,
2013-02-18 08:46:00,21.3,9.6,29.81,NW,320,22.0,37.0,60,0.00,,---,0.00,VWS V14.01,2013-02-18 13:46:00,
2013-02-18 09:01:00,22.0,9.9,29.82,WNW,287,30.0,37.0,59,0.00,,---,0.00,VWS V14.01,2013-02-18 14:01:00,
2013-02-18 09:16:00,22.4,9.9,29.83,NW,312,17.0,37.0,58,0.00,,---,0.00,VWS V14.01,2013-02-18 14:16:00,
2013-02-18 09:31:00,23.1,10.1,29.84,West,279,21.0,34.0,57,0.00,,---,0.00,VWS V14.01,2013-02-18 14:31:00,
2013-02-18 09:46:00,23.4,10.4,29.85,NW,317,23.0,39.0,57,0.00,,---,0.00,VWS V14.01,2013-02-18 14:46:00,
2013-02-18 10:01:00,23.9,10.1,29.86,WNW,290,27.0,35.0,55,0.00,,---,0.00,VWS V14.01,2013-02-18 15:01:00,
2013-02-18 10:16:00,24.4,10.6,29.86,WNW,292,23.0,30.0,55,0.00,,---,0.00,VWS V14.01,2013-02-18 15:16:00,
2013-02-18 10:31:00,24.5,9.8,29.86,West,280,13.0,33.0,53,0.00,,---,0.00,VWS V14.01,2013-02-18 15:31:00,
2013-02-18 10:46:00,25.0,10.3,29.87,NW,305,11.0,31.0,53,0.00,,---,0.00,VWS V14.01,2013-02-18 15:46:00,
2013-02-18 11:01:00,26.1,11.3,29.87,WNW,298,13.0,25.0,53,0.00,,---,0.00,VWS V14.01,2013-02-18 16:01:00,
2013-02-18 11:16:00,26.0,10.8,29.88,NNW,338,14.0,33.0,52,0.00,,---,0.00,VWS V14.01,2013-02-18 16:16:00,
2013-02-18 11:31:00,27.1,11.4,29.87,NW,312,15.0,30.0,51,0.00,,---,0.00,VWS V14.01,2013-02-18 16:31:00,
2013-02-18 11:46:00,27.1,9.6,29.86,WNW,301,13.0,35.0,47,0.00,,---,0.00,VWS V14.01,2013-02-18 16:46:00,
2013-02-18 12:01:00,27.6,9.1,29.87,WNW,288,30.0,32.0,45,0.00,,---,0.00,VWS V14.01,2013-02-18 17:01:00,
2013-02-18 12:16:00,28.6,8.4,29.88,West,271,19.0,39.0,42,0.00,,---,0.00,VWS V14.01,2013-02-18 17:16:00,
2013-02-18 12:31:00,29.4,9.7,29.88,WNW,297,12.0,30.0,43,0.00,,---,0.00,VWS V14.01,2013-02-18 17:31:00,
2013-02-18 12:46:00,29.9,9.6,29.88,NW,311,26.0,29.0,42,0.00,,---,0.00,VWS V14.01,2013-02-18 17:46:00,
2013-02-18 13:01:00,29.8,9.0,29.88,West,281,16.0,31.0,41,0.00,,---,0.00,VWS V14.01,2013-02-18 18:01:00,
2013-02-18 13:16:00,29.8,7.9,29.88,WNW,296,20.0,30.0,39,0.00,,---,0.00,VWS V14.01,2013-02-18 18:16:00,
2013-02-18 13:31:00,30.4,9.0,29.89,West,276,26.0,30.0,40,0.00,,---,0.00,VWS V14.01,2013-02-18 18:31:00,
2013-02-18 13:46:00,30.6,8.0,29.89,NW,304,18.0,30.0,38,0.00,,---,0.00,VWS V14.01,2013-02-18 18:46:00,
2013-02-18 14:01:00,30.8,8.8,29.89,West,261,14.0,28.0,39,0.00,,---,0.00,VWS V14.01,2013-02-18 19:01:00,
2013-02-18 14:16:00,30.7,7.5,29.89,WSW,256,13.0,30.0,37,0.00,,---,0.00,VWS V14.01,2013-02-18 19:16:00,
2013-02-18 14:31:00,31.0,7.2,29.91,NW,309,24.0,31.0,36,0.00,,---,0.00,VWS V14.01,2013-02-18 19:31:00,
2013-02-18 14:46:00,31.4,7.6,29.91,West,265,15.0,27.0,36,0.00,,---,0.00,VWS V14.01,2013-02-18 19:46:00,
2013-02-18 15:01:00,31.6,7.7,29.92,WSW,258,12.0,30.0,36,0.00,,---,0.00,VWS V14.01,2013-02-18 20:01:00,
2013-02-18 15:16:00,31.4,6.9,29.91,WNW,286,15.0,31.0,35,0.00,,---,0.00,VWS V14.01,2013-02-18 20:16:00,
2013-02-18 15:31:00,31.6,7.1,29.92,NW,309,11.0,30.0,35,0.00,,---,0.00,VWS V14.01,2013-02-18 20:31:00,
2013-02-18 15:46:00,31.5,6.4,29.93,WNW,293,17.0,29.0,34,0.00,,---,0.00,VWS V14.01,2013-02-18 20:46:00,
2013-02-18 16:01:00,31.4,5.6,29.94,WNW,287,13.0,22.0,33,0.00,,---,0.00,VWS V14.01,2013-02-18 21:01:00,
2013-02-18 16:16:00,31.5,5.7,29.95,WNW,288,12.0,25.0,33,0.00,,---,0.00,VWS V14.01,2013-02-18 21:16:00,
2013-02-18 16:31:00,31.0,4.6,29.96,West,272,8.0,23.0,32,0.00,,---,0.00,VWS V14.01,2013-02-18 21:31:00,
2013-02-18 16:46:00,30.9,7.1,29.97,West,273,11.0,21.0,36,0.00,,---,0.00,VWS V14.01,2013-02-18 21:46:00,
2013-02-18 17:01:00,30.6,4.9,29.98,WSW,256,10.0,21.0,33,0.00,,---,0.00,VWS V14.01,2013-02-18 22:01:00,
2013-02-18 17:16:00,30.0,6.3,29.98,West,273,12.0,22.0,36,0.00,,---,0.00,VWS V14.01,2013-02-18 22:16:00,
2013-02-18 17:31:00,29.9,10.1,30.00,WNW,303,16.0,18.0,43,0.00,,---,0.00,VWS V14.01,2013-02-18 22:31:00,
2013-02-18 17:46:00,29.5,8.2,30.00,WNW,288,13.0,21.0,40,0.00,,---,0.00,VWS V14.01,2013-02-18 22:46:00,
2013-02-18 18:01:00,29.2,7.3,30.01,West,279,8.0,18.0,39,0.00,,---,0.00,VWS V14.01,2013-02-18 23:01:00,
2013-02-18 18:16:00,29.2,8.4,30.01,WNW,288,13.0,18.0,41,0.00,,---,0.00,VWS V14.01,2013-02-18 23:16:00,
2013-02-18 18:31:00,28.9,9.7,30.03,West,273,12.0,18.0,44,0.00,,---,0.00,VWS V14.01,2013-02-18 23:31:00,
2013-02-18 18:46:00,29.1,10.9,30.03,West,272,11.0,25.0,46,0.00,,---,0.00,VWS V14.01,2013-02-18 23:46:00,
2013-02-18 19:01:00,28.9,11.7,30.02,WNW,294,22.0,25.0,48,0.00,,---,0.00,VWS V14.01,2013-02-19 00:01:00,
2013-02-18 19:16:00,28.8,11.1,30.03,WSW,252,13.0,24.0,47,0.00,,---,0.00,VWS V14.01,2013-02-19 00:16:00,
2013-02-18 19:31:00,28.5,10.4,30.03,West,261,15.0,23.0,46,0.00,,---,0.00,VWS V14.01,2013-02-19 00:31:00,
2013-02-18 19:46:00,28.4,10.3,30.05,West,279,8.0,21.0,46,0.00,,---,0.00,VWS V14.01,2013-02-19 00:46:00,
2013-02-18 20:01:00,28.4,9.3,30.06,West,268,10.0,17.0,44,0.00,,---,0.00,VWS V14.01,2013-02-19 01:01:00,
2013-02-18 20:16:00,28.3,7.6,30.05,WNW,292,15.0,20.0,41,0.00,,---,0.00,VWS V14.01,2013-02-19 01:16:00,
2013-02-18 20:31:00,28.3,8.2,30.05,WSW,255,15.0,24.0,42,0.00,,---,0.00,VWS V14.01,2013-02-19 01:31:00,
2013-02-18 20:46:00,28.1,8.0,30.05,West,264,14.0,22.0,42,0.00,,---,0.00,VWS V14.01,2013-02-19 01:46:00,
2013-02-18 21:01:00,28.0,7.9,30.06,West,275,11.0,23.0,42,0.00,,---,0.00,VWS V14.01,2013-02-19 02:01:00,
2013-02-18 21:16:00,28.0,7.4,30.06,WNW,290,16.0,22.0,41,0.00,,---,0.00,VWS V14.01,2013-02-19 02:16:00,
2013-02-18 21:31:00,28.0,8.4,30.06,West,273,16.0,21.0,43,0.00,,---,0.00,VWS V14.01,2013-02-19 02:31:00,
2013-02-18 21:46:00,28.0,8.4,30.06,West,266,14.0,24.0,43,0.00,,---,0.00,VWS V14.01,2013-02-19 02:46:00,
2013-02-18 22:01:00,28.0,8.9,30.07,West,267,12.0,24.0,44,0.00,,---,0.00,VWS V14.01,2013-02-19 03:01:00,
2013-02-18 22:16:00,28.0,10.9,30.07,West,269,17.0,21.0,48,0.00,,---,0.00,VWS V14.01,2013-02-19 03:16:00,
2013-02-18 22:31:00,27.9,10.3,30.06,West,263,16.0,19.0,47,0.00,,---,0.00,VWS V14.01,2013-02-19 03:31:00,
2013-02-18 22:46:00,28.0,9.4,30.06,WNW,289,13.0,22.0,45,0.00,,---,0.00,VWS V14.01,2013-02-19 03:46:00,
2013-02-18 23:01:00,27.8,9.7,30.08,WNW,282,9.0,19.0,46,0.00,,---,0.00,VWS V14.01,2013-02-19 04:01:00,
2013-02-18 23:16:00,27.6,9.5,30.09,West,277,10.0,18.0,46,0.00,,---,0.00,VWS V14.01,2013-02-19 04:16:00,
2013-02-18 23:31:00,27.2,7.7,30.09,WNW,296,9.0,12.0,43,0.00,,---,0.00,VWS V14.01,2013-02-19 04:31:00,
2013-02-18 23:46:00,27.2,7.2,30.09,WNW,290,9.0,12.0,42,0.00,,---,0.00,VWS V14.01,2013-02-19 04:46:00,